METAR Data
IDs: Format: Raw Decoded Include TAF

Data at: 1152 UTC 23 Sep 2018

KTIF 231135Z AUTO 20009G14KT 10SM CLR 14/07 A2992 RMK AO2 T01350066
KTIF 231115Z AUTO 21008G14KT 10SM CLR 14/07 A2993 RMK AO2 T01360066
KTIF 231055Z AUTO 21007KT 10SM CLR 14/07 A2993 RMK AO2 T01360067
KTIF 231035Z AUTO 22007KT 10SM CLR 14/07 A2993 RMK AO2 T01370067
KTIF 231015Z AUTO 21009KT 10SM CLR 14/07 A2993 RMK AO2 T01400068
KTIF 230955Z AUTO 20008KT 10SM CLR 14/07 A2993 RMK AO2 T01380070
KTIF 230935Z AUTO 20008KT 10SM CLR 14/07 A2994 RMK AO2 T01400069
KTIF 230915Z AUTO 20008G14KT 10SM CLR 14/07 A2994 RMK AO2 T01440070
KTIF 230850Z AUTO 21010KT 10SM CLR 15/07 A2995 RMK AO2 T01500070
KTIF 230835Z AUTO 20010G17KT 10SM CLR 15/07 A2995 RMK AO2 T01520070
KTIF 230815Z AUTO 20011G15KT 10SM CLR 16/07 A2996 RMK AO2 T01550070
KTIF 230755Z AUTO 20010KT 10SM CLR 16/07 A2996 RMK AO2 T01570071
KTIF 230735Z AUTO 20013KT 10SM CLR 16/07 A2996 RMK AO2 T01610071
KTIF 230715Z AUTO 19012KT 10SM CLR 16/07 A2997 RMK AO2 T01600071
KTIF 230655Z AUTO 19013KT 10SM CLR 16/07 A2997 RMK AO2 T01630072
KTIF 230635Z AUTO 20014G18KT 10SM CLR 17/07 A2997 RMK AO2 T01660072
KTIF 230615Z AUTO 20014G19KT 10SM CLR 17/07 A2998 RMK AO2 T01700073
KTIF 230555Z AUTO 19014G21KT 10SM CLR 17/08 A2998 RMK AO2 T01700076 10264 20170 402800082
KTIF 230535Z AUTO 20015G21KT 10SM CLR 17/08 A2998 RMK AO2 T01740077
KTIF 230515Z AUTO 19016G21KT 10SM CLR 18/08 A2998 RMK AO2 T01750080
KTIF 230455Z AUTO 19014G20KT 10SM CLR 18/08 A2998 RMK AO2 T01770081
KTIF 230435Z AUTO 18013G18KT 10SM CLR 18/08 A2998 RMK AO2 T01770082
KTIF 230415Z AUTO 18014G17KT 10SM CLR 18/08 A2998 RMK AO2 T01790082
KTIF 230355Z AUTO 18013KT 10SM CLR 18/08 A2998 RMK AO2 T01810083
KTIF 230335Z AUTO 17016G21KT 10SM CLR 19/09 A2998 RMK AO2 T01850085
KTIF 230315Z AUTO 17014G18KT 10SM CLR 19/09 A2998 RMK AO2 T01880085
KTIF 230255Z AUTO 17013KT 10SM CLR 19/09 A2998 RMK AO2 T01900085
KTIF 230235Z AUTO 17012KT 10SM CLR 19/08 A2998 RMK AO2 T01930082
KTIF 230215Z AUTO 17012KT 10SM CLR 20/08 A2998 RMK AO2 T02020080
KTIF 230155Z AUTO 16014G18KT 10SM CLR 21/08 A2997 RMK AO2 T02090078
KTIF 230135Z AUTO 16012KT 10SM CLR 21/08 A2997 RMK AO2 T02130077
KTIF 230115Z AUTO 15011KT 10SM CLR 21/08 A2996 RMK AO2 T02100077
KTIF 230055Z AUTO 16010KT 10SM CLR 23/08 A2996 RMK AO2 T02250075
KTIF 230035Z AUTO 15009KT 10SM CLR 24/08 A2996 RMK AO2 T02350080
KTIF 230015Z AUTO 16010KT 10SM CLR 25/08 A2996 RMK AO2 T02530078
KTIF 222355Z AUTO 17012KT 10SM CLR 27/08 A2996 RMK AO2 T02650080 10280 20234
KTIF 222335Z AUTO 18013G16KT 10SM CLR 27/08 A2996 RMK AO2 T02710082
KTIF 222315Z AUTO 19015G21KT 10SM CLR 28/08 A2996 RMK AO2 T02750081
KTIF 222255Z AUTO 17017G24KT 10SM CLR 28/08 A2996 RMK AO2 T02770082
KTIF 222235Z AUTO 19018G22KT 10SM CLR 28/08 A2997 RMK AO2 T02780081
KTIF 222215Z AUTO 18016G21KT 10SM CLR 28/08 A2998 RMK AO2 T02780082
KTIF 222155Z AUTO 19018G23KT 10SM CLR 28/08 A2998 RMK AO2 T02790083
KTIF 222135Z AUTO 19016G23KT 10SM CLR 28/08 A2998 RMK AO2 T02750084
KTIF 222115Z AUTO 20018G26KT 10SM CLR 28/09 A2999 RMK AO2 T02750086
KTIF 222055Z AUTO 20015G28KT 10SM CLR 27/09 A3000 RMK AO2 T02700087
KTIF 222035Z AUTO 19022G27KT 10SM CLR 27/09 A3001 RMK AO2 T02670090
KTIF 222015Z AUTO 19018G27KT 10SM CLR 26/09 A3002 RMK AO2 T02640092
KTIF 221955Z AUTO 21016G24KT 10SM CLR 26/09 A3003 RMK AO2 T02590090
KTIF 221935Z AUTO 20018G25KT 10SM CLR 26/09 A3004 RMK AO2 T02560089
KTIF 221915Z AUTO 19020G26KT 10SM CLR 25/08 A3005 RMK AO2 T02510084
KTIF 221855Z AUTO 19022G28KT 10SM CLR 25/08 A3005 RMK AO2 T02500076
KTIF 221835Z AUTO 20021G29KT 10SM CLR 25/07 A3007 RMK AO2 T02450070
KTIF 221815Z AUTO 19016G24KT 10SM CLR 24/07 A3007 RMK AO2 T02430071
KTIF 221755Z AUTO 20020G25KT 10SM CLR 24/07 A3009 RMK AO2 T02360067 10236 20085
KTIF 221735Z AUTO 19016G24KT 10SM CLR 23/07 A3010 RMK AO2 T02270071
KTIF 221715Z AUTO 20019G29KT 10SM CLR 22/07 A3011 RMK AO2 T02200067
KTIF 221655Z AUTO 19017G24KT 10SM CLR 21/08 A3011 RMK AO2 T02120076
KTIF 221635Z AUTO 19016G22KT 10SM CLR 20/09 A3013 RMK AO2 T02040086
KTIF 221615Z AUTO 19016G24KT 10SM CLR 19/09 A3013 RMK AO2 T01850086
KTIF 221555Z AUTO 20015G26KT 10SM CLR 18/09 A3014 RMK AO2 T01750087
KTIF 221535Z AUTO 19019G24KT 10SM CLR 17/09 A3015 RMK AO2 T01660085
KTIF 221515Z AUTO 19016G21KT 10SM CLR 16/09 A3016 RMK AO2 T01550085
KTIF 221455Z AUTO 19019G25KT 10SM CLR 15/08 A3017 RMK AO2 T01450082
KTIF 221435Z AUTO 19015G20KT 10SM CLR 14/08 A3017 RMK AO2 T01360080
KTIF 221415Z AUTO 19015G21KT 10SM CLR 13/08 A3017 RMK AO2 T01260077
KTIF 221355Z AUTO 19016KT 10SM CLR 12/07 A3017 RMK AO2 T01150072
KTIF 221335Z AUTO 18012G16KT 10SM CLR 11/07 A3017 RMK AO2 T01100070
KTIF 221315Z AUTO 20011G14KT 10SM CLR 10/07 A3018 RMK AO2 T00980065
KTIF 221255Z AUTO 19007G14KT 10SM CLR 09/06 A3018 RMK AO2 T00880062
KTIF 221235Z AUTO 19010G15KT 10SM CLR 09/06 A3018 RMK AO2 T00850061
KTIF 221215Z AUTO 19009KT 10SM CLR 09/06 A3019 RMK AO2 T00870061
KTIF 221155Z AUTO 19010KT 10SM CLR 09/06 A3019 RMK AO2 T00890060 10095 20082
KTIF 221135Z AUTO 18011G16KT 10SM CLR 09/06 A3020 RMK AO2 T00900060
KTIF 221115Z AUTO 18011G15KT 10SM CLR 09/06 A3021 RMK AO2 T00910060
KTIF 221055Z AUTO 18012G16KT 10SM CLR 09/06 A3021 RMK AO2 T00920060
KTIF 221035Z AUTO 17013KT 10SM CLR 09/06 A3021 RMK AO2 T00930060
KTIF 221015Z AUTO 17011KT 10SM CLR 09/06 A3022 RMK AO2 T00920060
KTIF 220955Z AUTO 17010KT 10SM CLR 09/06 A3022 RMK AO2 T00930061
KTIF 220935Z AUTO 16006KT 10SM CLR 09/06 A3023 RMK AO2 T00870060
KTIF 220915Z AUTO 17009KT 10SM CLR 09/06 A3023 RMK AO2 T00870058
KTIF 220855Z AUTO 17010KT 10SM CLR 09/06 A3024 RMK AO2 T00860059
KTIF 220835Z AUTO 17009KT 10SM CLR 09/06 A3025 RMK AO2 T00870059
KTIF 220815Z AUTO 17009KT 10SM CLR 09/06 A3025 RMK AO2 T00850059
KTIF 220755Z AUTO 16009KT 10SM CLR 09/06 A3026 RMK AO2 T00850060
KTIF 220735Z AUTO 16007KT 10SM CLR 08/06 A3027 RMK AO2 T00840060
KTIF 220715Z AUTO 17007KT 10SM CLR 09/06 A3028 RMK AO2 T00850060
KTIF 220655Z AUTO 16008KT 10SM CLR 08/06 A3028 RMK AO2 T00830060
KTIF 220635Z AUTO 16008KT 10SM CLR 09/06 A3028 RMK AO2 T00860060
KTIF 220615Z AUTO 17009KT 10SM CLR 08/06 A3029 RMK AO2 T00820060
KTIF 220555Z AUTO 16006KT 10SM CLR 09/06 A3029 RMK AO2 T00870061 10165 20086 401840085
KTIF 220535Z AUTO 17008KT 10SM CLR 09/06 A3030 RMK AO2 T00870062
KTIF 220515Z AUTO 15008KT 10SM CLR 09/06 A3030 RMK AO2 T00890063
KTIF 220455Z AUTO 15007KT 10SM CLR 09/07 A3030 RMK AO2 T00880065
KTIF 220435Z AUTO 14007KT 10SM CLR 09/07 A3031 RMK AO2 T00900065
KTIF 220415Z AUTO 14008KT 10SM CLR 09/07 A3031 RMK AO2 T00930065
KTIF 220355Z AUTO 13007KT 10SM CLR 10/07 A3031 RMK AO2 T00960065
KTIF 220335Z AUTO 14007KT 10SM CLR 10/07 A3031 RMK AO2 T01000065
KTIF 220315Z AUTO 14006KT 10SM CLR 10/07 A3031 RMK AO2 T01000067
KTIF 220255Z AUTO 14007KT 10SM CLR 10/07 A3031 RMK AO2 T01040067
KTIF 220235Z AUTO 14007KT 10SM CLR 11/07 A3031 RMK AO2 T01060067
KTIF 220215Z AUTO 14006KT 10SM CLR 11/07 A3031 RMK AO2 T01100065
KTIF 220155Z AUTO 13006KT 10SM CLR 11/07 A3030 RMK AO2 T01120066
KTIF 220135Z AUTO 13007KT 10SM CLR 12/07 A3030 RMK AO2 T01170067
KTIF 220115Z AUTO 13005KT 10SM CLR 12/07 A3029 RMK AO2 T01190068
KTIF 220050Z AUTO 12006KT 10SM CLR 13/07 A3029 RMK AO2 T01340066
KTIF 220035Z AUTO 12006KT 10SM CLR 14/06 A3029 RMK AO2 T01440064
KTIF 220015Z AUTO 13007KT 10SM CLR 16/06 A3028 RMK AO2 T01560060
KTIF 212355Z AUTO 12007KT 10SM CLR 17/05 A3028 RMK AO2 T01650052 10184 20148